sensor_id;sensor_type;location;lat;lon;timestamp;temperature;humidity
5246;DHT22;54412;51.206;6.888;2023-07-29T00:00:43;19.80;99.90
5246;DHT22;54412;51.206;6.888;2023-07-29T00:03:09;19.70;99.90
5246;DHT22;54412;51.206;6.888;2023-07-29T00:05:37;19.80;99.90
5246;DHT22;54412;51.206;6.888;2023-07-29T00:08:03;19.70;99.90
5246;DHT22;54412;51.206;6.888;2023-07-29T00:10:31;19.70;99.90
5246;DHT22;54412;51.206;6.888;2023-07-29T00:12:58;19.70;99.90
5246;DHT22;54412;51.206;6.888;2023-07-29T00:15:24;19.70;99.90
5246;DHT22;54412;51.206;6.888;2023-07-29T00:17:50;19.70;99.90
5246;DHT22;54412;51.206;6.888;2023-07-29T00:20:15;19.70;99.90
5246;DHT22;54412;51.206;6.888;2023-07-29T00:22:41;19.70;99.90
5246;DHT22;54412;51.206;6.888;2023-07-29T00:25:07;19.70;99.90
5246;DHT22;54412;51.206;6.888;2023-07-29T00:27:33;19.60;99.90
5246;DHT22;54412;51.206;6.888;2023-07-29T00:29:58;19.70;99.90
5246;DHT22;54412;51.206;6.888;2023-07-29T00:32:24;19.70;99.90
5246;DHT22;54412;51.206;6.888;2023-07-29T00:34:50;19.60;99.90
5246;DHT22;54412;51.206;6.888;2023-07-29T00:37:16;19.60;99.90
5246;DHT22;54412;51.206;6.888;2023-07-29T00:39:42;19.60;99.90
5246;DHT22;54412;51.206;6.888;2023-07-29T00:42:08;19.60;99.90
5246;DHT22;54412;51.206;6.888;2023-07-29T00:44:34;19.60;99.90
5246;DHT22;54412;51.206;6.888;2023-07-29T00:47:02;19.60;99.90
5246;DHT22;54412;51.206;6.888;2023-07-29T00:49:29;19.60;99.90
5246;DHT22;54412;51.206;6.888;2023-07-29T00:51:55;19.60;99.90
5246;DHT22;54412;51.206;6.888;2023-07-29T00:54:21;19.60;99.90
5246;DHT22;54412;51.206;6.888;2023-07-29T00:56:48;19.60;99.90
5246;DHT22;54412;51.206;6.888;2023-07-29T00:59:14;19.60;99.90
5246;DHT22;54412;51.206;6.888;2023-07-29T01:01:40;19.60;99.90
5246;DHT22;54412;51.206;6.888;2023-07-29T01:04:06;19.60;99.90
5246;DHT22;54412;51.206;6.888;2023-07-29T01:06:53;19.60;99.90
5246;DHT22;54412;51.206;6.888;2023-07-29T01:09:30;19.60;99.90
5246;DHT22;54412;51.206;6.888;2023-07-29T01:12:25;19.60;99.90
5246;DHT22;54412;51.206;6.888;2023-07-29T01:15:12;19.60;99.90
5246;DHT22;54412;51.206;6.888;2023-07-29T01:17:46;19.60;99.90
5246;DHT22;54412;51.206;6.888;2023-07-29T01:20:15;19.60;99.90
5246;DHT22;54412;51.206;6.888;2023-07-29T01:22:42;19.50;99.90
5246;DHT22;54412;51.206;6.888;2023-07-29T01:25:09;19.50;99.90
5246;DHT22;54412;51.206;6.888;2023-07-29T01:27:34;19.50;99.90
5246;DHT22;54412;51.206;6.888;2023-07-29T01:30:01;19.50;99.90
5246;DHT22;54412;51.206;6.888;2023-07-29T01:32:36;19.50;99.90
5246;DHT22;54412;51.206;6.888;2023-07-29T01:38:04;19.50;99.90
5246;DHT22;54412;51.206;6.888;2023-07-29T01:40:33;19.50;99.90
5246;DHT22;54412;51.206;6.888;2023-07-29T01:42:59;19.50;99.90
5246;DHT22;54412;51.206;6.888;2023-07-29T01:45:25;19.50;99.90
5246;DHT22;54412;51.206;6.888;2023-07-29T01:47:52;19.50;99.90
5246;DHT22;54412;51.206;6.888;2023-07-29T01:50:18;19.50;99.90
5246;DHT22;54412;51.206;6.888;2023-07-29T01:52:43;19.50;99.90
5246;DHT22;54412;51.206;6.888;2023-07-29T01:55:09;19.50;99.90
5246;DHT22;54412;51.206;6.888;2023-07-29T01:57:35;19.50;99.90
5246;DHT22;54412;51.206;6.888;2023-07-29T02:00:00;19.50;99.90
5246;DHT22;54412;51.206;6.888;2023-07-29T02:02:27;19.40;99.90
5246;DHT22;54412;51.206;6.888;2023-07-29T02:04:53;19.50;99.90
5246;DHT22;54412;51.206;6.888;2023-07-29T02:07:21;19.40;99.90
5246;DHT22;54412;51.206;6.888;2023-07-29T02:09:46;19.40;99.90
5246;DHT22;54412;51.206;6.888;2023-07-29T02:12:12;19.40;99.90
5246;DHT22;54412;51.206;6.888;2023-07-29T02:14:38;19.40;99.90
5246;DHT22;54412;51.206;6.888;2023-07-29T02:17:04;19.40;99.90
5246;DHT22;54412;51.206;6.888;2023-07-29T02:19:29;19.40;99.90
5246;DHT22;54412;51.206;6.888;2023-07-29T02:21:55;19.40;99.90
5246;DHT22;54412;51.206;6.888;2023-07-29T02:24:21;19.30;99.90
5246;DHT22;54412;51.206;6.888;2023-07-29T02:26:46;19.30;99.90
5246;DHT22;54412;51.206;6.888;2023-07-29T02:29:12;19.20;99.90
5246;DHT22;54412;51.206;6.888;2023-07-29T02:31:38;19.20;99.90
5246;DHT22;54412;51.206;6.888;2023-07-29T02:34:04;19.20;99.90
5246;DHT22;54412;51.206;6.888;2023-07-29T02:36:30;19.30;99.90
5246;DHT22;54412;51.206;6.888;2023-07-29T02:38:55;19.30;99.90
5246;DHT22;54412;51.206;6.888;2023-07-29T02:41:21;19.30;99.90
5246;DHT22;54412;51.206;6.888;2023-07-29T02:43:50;19.40;99.90
5246;DHT22;54412;51.206;6.888;2023-07-29T02:46:16;19.40;99.90
5246;DHT22;54412;51.206;6.888;2023-07-29T02:48:43;19.40;99.90
5246;DHT22;54412;51.206;6.888;2023-07-29T02:51:10;19.40;99.90
5246;DHT22;54412;51.206;6.888;2023-07-29T02:53:35;19.40;99.90
5246;DHT22;54412;51.206;6.888;2023-07-29T02:56:04;19.50;99.90
5246;DHT22;54412;51.206;6.888;2023-07-29T02:58:35;19.50;99.90
5246;DHT22;54412;51.206;6.888;2023-07-29T03:01:03;19.50;99.90
5246;DHT22;54412;51.206;6.888;2023-07-29T03:03:30;19.50;99.90
5246;DHT22;54412;51.206;6.888;2023-07-29T03:06:03;19.50;99.90
5246;DHT22;54412;51.206;6.888;2023-07-29T03:08:34;19.50;99.90
5246;DHT22;54412;51.206;6.888;2023-07-29T03:11:23;19.50;99.90
5246;DHT22;54412;51.206;6.888;2023-07-29T03:13:48;19.40;99.90
5246;DHT22;54412;51.206;6.888;2023-07-29T03:16:16;19.40;99.90
5246;DHT22;54412;51.206;6.888;2023-07-29T03:18:43;19.40;99.90
5246;DHT22;54412;51.206;6.888;2023-07-29T03:21:10;19.40;99.90
5246;DHT22;54412;51.206;6.888;2023-07-29T03:23:37;19.40;99.90
5246;DHT22;54412;51.206;6.888;2023-07-29T03:26:04;19.40;99.90
5246;DHT22;54412;51.206;6.888;2023-07-29T03:28:36;19.40;99.90
5246;DHT22;54412;51.206;6.888;2023-07-29T03:31:05;19.40;99.90
5246;DHT22;54412;51.206;6.888;2023-07-29T03:33:30;19.40;99.90
5246;DHT22;54412;51.206;6.888;2023-07-29T03:35:56;19.50;99.90
5246;DHT22;54412;51.206;6.888;2023-07-29T03:38:22;19.50;99.90
5246;DHT22;54412;51.206;6.888;2023-07-29T03:40:48;19.40;99.90
5246;DHT22;54412;51.206;6.888;2023-07-29T03:43:13;19.40;99.90
5246;DHT22;54412;51.206;6.888;2023-07-29T03:45:40;19.40;99.90
5246;DHT22;54412;51.206;6.888;2023-07-29T03:48:06;19.40;99.90
5246;DHT22;54412;51.206;6.888;2023-07-29T03:50:34;19.40;99.90
5246;DHT22;54412;51.206;6.888;2023-07-29T03:53:02;19.30;99.90
5246;DHT22;54412;51.206;6.888;2023-07-29T03:55:28;19.40;99.90
5246;DHT22;54412;51.206;6.888;2023-07-29T03:58:00;19.40;99.90
5246;DHT22;54412;51.206;6.888;2023-07-29T04:00:26;19.40;99.90
5246;DHT22;54412;51.206;6.888;2023-07-29T04:02:52;19.40;99.90
5246;DHT22;54412;51.206;6.888;2023-07-29T04:05:18;19.40;99.90
5246;DHT22;54412;51.206;6.888;2023-07-29T04:07:44;19.40;99.90
5246;DHT22;54412;51.206;6.888;2023-07-29T04:10:10;19.40;99.90
5246;DHT22;54412;51.206;6.888;2023-07-29T04:12:36;19.40;99.90
5246;DHT22;54412;51.206;6.888;2023-07-29T04:15:02;19.50;99.90
5246;DHT22;54412;51.206;6.888;2023-07-29T04:17:28;19.40;99.90
5246;DHT22;54412;51.206;6.888;2023-07-29T04:19:54;19.50;99.90
5246;DHT22;54412;51.206;6.888;2023-07-29T04:22:20;19.50;99.90
5246;DHT22;54412;51.206;6.888;2023-07-29T04:24:46;19.50;99.90
5246;DHT22;54412;51.206;6.888;2023-07-29T04:27:12;19.40;99.90
5246;DHT22;54412;51.206;6.888;2023-07-29T04:29:37;19.40;99.90
5246;DHT22;54412;51.206;6.888;2023-07-29T04:32:04;19.40;99.90
5246;DHT22;54412;51.206;6.888;2023-07-29T04:34:30;19.40;99.90
5246;DHT22;54412;51.206;6.888;2023-07-29T04:36:56;19.40;99.90
5246;DHT22;54412;51.206;6.888;2023-07-29T04:39:22;19.40;99.90
5246;DHT22;54412;51.206;6.888;2023-07-29T04:41:48;19.40;99.90
5246;DHT22;54412;51.206;6.888;2023-07-29T04:44:13;19.40;99.90
5246;DHT22;54412;51.206;6.888;2023-07-29T04:46:39;19.40;99.90
5246;DHT22;54412;51.206;6.888;2023-07-29T04:49:05;19.40;99.90
5246;DHT22;54412;51.206;6.888;2023-07-29T04:51:31;19.40;99.90
5246;DHT22;54412;51.206;6.888;2023-07-29T04:53:57;19.40;99.90
5246;DHT22;54412;51.206;6.888;2023-07-29T04:56:23;19.40;99.90
5246;DHT22;54412;51.206;6.888;2023-07-29T04:58:49;19.40;99.90
5246;DHT22;54412;51.206;6.888;2023-07-29T05:01:15;19.40;99.90
5246;DHT22;54412;51.206;6.888;2023-07-29T05:03:41;19.40;99.90
5246;DHT22;54412;51.206;6.888;2023-07-29T05:06:07;19.40;99.90
5246;DHT22;54412;51.206;6.888;2023-07-29T05:08:33;19.40;99.90
5246;DHT22;54412;51.206;6.888;2023-07-29T05:10:58;19.40;99.90
5246;DHT22;54412;51.206;6.888;2023-07-29T05:13:24;19.40;99.90
5246;DHT22;54412;51.206;6.888;2023-07-29T05:15:50;19.50;99.90
5246;DHT22;54412;51.206;6.888;2023-07-29T05:18:16;19.40;99.90
5246;DHT22;54412;51.206;6.888;2023-07-29T05:20:43;19.40;99.90
5246;DHT22;54412;51.206;6.888;2023-07-29T05:23:08;19.40;99.90
5246;DHT22;54412;51.206;6.888;2023-07-29T05:25:34;19.40;99.90
5246;DHT22;54412;51.206;6.888;2023-07-29T05:28:00;19.40;99.90
5246;DHT22;54412;51.206;6.888;2023-07-29T05:30:27;19.40;99.90
5246;DHT22;54412;51.206;6.888;2023-07-29T05:32:56;19.40;99.90
5246;DHT22;54412;51.206;6.888;2023-07-29T05:35:23;19.40;99.90
5246;DHT22;54412;51.206;6.888;2023-07-29T05:37:49;19.40;99.90
5246;DHT22;54412;51.206;6.888;2023-07-29T05:40:15;19.40;99.90
5246;DHT22;54412;51.206;6.888;2023-07-29T05:42:41;19.40;99.90
5246;DHT22;54412;51.206;6.888;2023-07-29T05:45:07;19.40;99.90
5246;DHT22;54412;51.206;6.888;2023-07-29T05:47:33;19.30;99.90
5246;DHT22;54412;51.206;6.888;2023-07-29T05:49:59;19.30;99.90
5246;DHT22;54412;51.206;6.888;2023-07-29T05:52:27;19.30;99.90
5246;DHT22;54412;51.206;6.888;2023-07-29T05:54:53;19.30;99.90
5246;DHT22;54412;51.206;6.888;2023-07-29T05:57:18;19.20;99.90
5246;DHT22;54412;51.206;6.888;2023-07-29T05:59:44;19.30;99.90
5246;DHT22;54412;51.206;6.888;2023-07-29T06:02:10;19.30;99.90
5246;DHT22;54412;51.206;6.888;2023-07-29T06:04:35;19.30;99.90
5246;DHT22;54412;51.206;6.888;2023-07-29T06:07:01;19.20;99.90
5246;DHT22;54412;51.206;6.888;2023-07-29T06:09:27;19.20;99.90
5246;DHT22;54412;51.206;6.888;2023-07-29T06:11:52;19.20;99.90
5246;DHT22;54412;51.206;6.888;2023-07-29T06:14:18;19.20;99.90
5246;DHT22;54412;51.206;6.888;2023-07-29T06:16:44;19.20;99.90
5246;DHT22;54412;51.206;6.888;2023-07-29T06:19:09;19.20;99.90
5246;DHT22;54412;51.206;6.888;2023-07-29T06:21:35;19.20;99.90
5246;DHT22;54412;51.206;6.888;2023-07-29T06:24:01;19.20;99.90
5246;DHT22;54412;51.206;6.888;2023-07-29T06:26:27;19.20;99.90
5246;DHT22;54412;51.206;6.888;2023-07-29T06:28:53;19.20;99.90
5246;DHT22;54412;51.206;6.888;2023-07-29T06:31:19;19.10;99.90
5246;DHT22;54412;51.206;6.888;2023-07-29T06:33:45;19.20;99.90
5246;DHT22;54412;51.206;6.888;2023-07-29T06:36:11;19.20;99.90
5246;DHT22;54412;51.206;6.888;2023-07-29T06:38:36;19.20;99.90
5246;DHT22;54412;51.206;6.888;2023-07-29T06:41:06;19.10;99.90
5246;DHT22;54412;51.206;6.888;2023-07-29T06:43:32;19.10;99.90
5246;DHT22;54412;51.206;6.888;2023-07-29T06:45:57;19.10;99.90
5246;DHT22;54412;51.206;6.888;2023-07-29T06:48:23;19.10;99.90
5246;DHT22;54412;51.206;6.888;2023-07-29T06:50:49;19.10;99.90
5246;DHT22;54412;51.206;6.888;2023-07-29T06:53:16;19.10;99.90
5246;DHT22;54412;51.206;6.888;2023-07-29T06:55:42;19.10;99.90
5246;DHT22;54412;51.206;6.888;2023-07-29T06:58:09;19.10;99.90
5246;DHT22;54412;51.206;6.888;2023-07-29T07:00:35;19.10;99.90
5246;DHT22;54412;51.206;6.888;2023-07-29T07:03:01;19.00;99.90
5246;DHT22;54412;51.206;6.888;2023-07-29T07:05:27;19.00;99.90
5246;DHT22;54412;51.206;6.888;2023-07-29T07:07:52;19.10;99.90
5246;DHT22;54412;51.206;6.888;2023-07-29T07:10:18;19.10;99.90
5246;DHT22;54412;51.206;6.888;2023-07-29T07:12:44;19.10;99.90
5246;DHT22;54412;51.206;6.888;2023-07-29T07:15:10;19.20;99.90
5246;DHT22;54412;51.206;6.888;2023-07-29T07:17:36;19.20;99.90
5246;DHT22;54412;51.206;6.888;2023-07-29T07:20:02;19.30;99.90
5246;DHT22;54412;51.206;6.888;2023-07-29T07:22:28;19.40;99.90
5246;DHT22;54412;51.206;6.888;2023-07-29T07:24:54;19.40;99.90
5246;DHT22;54412;51.206;6.888;2023-07-29T07:27:20;19.50;99.90
5246;DHT22;54412;51.206;6.888;2023-07-29T07:29:46;19.40;99.90
5246;DHT22;54412;51.206;6.888;2023-07-29T07:32:11;19.50;99.90
5246;DHT22;54412;51.206;6.888;2023-07-29T07:34:37;19.60;99.90
5246;DHT22;54412;51.206;6.888;2023-07-29T07:37:03;19.70;99.90
5246;DHT22;54412;51.206;6.888;2023-07-29T07:39:29;19.70;99.90
5246;DHT22;54412;51.206;6.888;2023-07-29T07:41:56;19.80;99.90
5246;DHT22;54412;51.206;6.888;2023-07-29T07:44:22;19.80;99.90
5246;DHT22;54412;51.206;6.888;2023-07-29T07:46:47;19.80;99.90
5246;DHT22;54412;51.206;6.888;2023-07-29T07:49:14;19.90;99.90
5246;DHT22;54412;51.206;6.888;2023-07-29T07:51:39;20.00;99.90
5246;DHT22;54412;51.206;6.888;2023-07-29T07:54:05;20.10;99.90
5246;DHT22;54412;51.206;6.888;2023-07-29T07:56:31;20.30;99.90
5246;DHT22;54412;51.206;6.888;2023-07-29T07:58:57;20.20;99.90
5246;DHT22;54412;51.206;6.888;2023-07-29T08:01:22;20.10;99.90
5246;DHT22;54412;51.206;6.888;2023-07-29T08:03:48;20.10;99.90
5246;DHT22;54412;51.206;6.888;2023-07-29T08:06:13;20.00;99.90
5246;DHT22;54412;51.206;6.888;2023-07-29T08:08:39;20.00;99.90
5246;DHT22;54412;51.206;6.888;2023-07-29T08:11:05;20.10;99.90
5246;DHT22;54412;51.206;6.888;2023-07-29T08:13:31;20.30;99.90
5246;DHT22;54412;51.206;6.888;2023-07-29T08:15:57;20.60;99.90
5246;DHT22;54412;51.206;6.888;2023-07-29T08:18:22;20.60;99.90
5246;DHT22;54412;51.206;6.888;2023-07-29T08:20:58;20.80;99.90
5246;DHT22;54412;51.206;6.888;2023-07-29T08:23:29;20.90;99.90
5246;DHT22;54412;51.206;6.888;2023-07-29T08:25:59;21.00;99.90
5246;DHT22;54412;51.206;6.888;2023-07-29T08:28:31;21.10;99.90
5246;DHT22;54412;51.206;6.888;2023-07-29T08:30:59;21.20;99.90
5246;DHT22;54412;51.206;6.888;2023-07-29T08:33:25;21.00;99.90
5246;DHT22;54412;51.206;6.888;2023-07-29T08:35:52;21.20;99.90
5246;DHT22;54412;51.206;6.888;2023-07-29T08:38:18;21.20;99.90
5246;DHT22;54412;51.206;6.888;2023-07-29T08:43:59;21.00;99.90
5246;DHT22;54412;51.206;6.888;2023-07-29T08:46:32;21.10;99.90
5246;DHT22;54412;51.206;6.888;2023-07-29T08:48:59;21.40;99.90
5246;DHT22;54412;51.206;6.888;2023-07-29T08:51:27;21.50;99.90
5246;DHT22;54412;51.206;6.888;2023-07-29T08:53:55;21.60;99.90
5246;DHT22;54412;51.206;6.888;2023-07-29T08:56:21;21.80;99.90
5246;DHT22;54412;51.206;6.888;2023-07-29T08:58:47;21.70;99.90
5246;DHT22;54412;51.206;6.888;2023-07-29T09:01:15;21.80;99.90
5246;DHT22;54412;51.206;6.888;2023-07-29T09:03:41;21.70;99.90
5246;DHT22;54412;51.206;6.888;2023-07-29T09:06:07;21.60;99.90
5246;DHT22;54412;51.206;6.888;2023-07-29T09:08:33;21.50;99.90
5246;DHT22;54412;51.206;6.888;2023-07-29T09:11:00;21.60;99.90
5246;DHT22;54412;51.206;6.888;2023-07-29T09:13:26;21.60;99.90
5246;DHT22;54412;51.206;6.888;2023-07-29T09:15:57;21.30;99.90
5246;DHT22;54412;51.206;6.888;2023-07-29T09:18:23;21.20;99.90
5246;DHT22;54412;51.206;6.888;2023-07-29T09:20:52;21.10;99.90
5246;DHT22;54412;51.206;6.888;2023-07-29T09:23:18;21.10;99.90
5246;DHT22;54412;51.206;6.888;2023-07-29T09:25:46;21.00;99.90
5246;DHT22;54412;51.206;6.888;2023-07-29T09:28:14;20.90;99.90
5246;DHT22;54412;51.206;6.888;2023-07-29T09:30:45;20.80;99.90
5246;DHT22;54412;51.206;6.888;2023-07-29T09:33:12;20.80;99.90
5246;DHT22;54412;51.206;6.888;2023-07-29T09:35:38;20.90;99.90
5246;DHT22;54412;51.206;6.888;2023-07-29T09:38:04;21.10;99.90
5246;DHT22;54412;51.206;6.888;2023-07-29T09:40:35;21.20;99.90
5246;DHT22;54412;51.206;6.888;2023-07-29T09:43:03;21.30;99.90
5246;DHT22;54412;51.206;6.888;2023-07-29T09:45:31;21.20;99.90
5246;DHT22;54412;51.206;6.888;2023-07-29T09:47:59;21.30;99.90
5246;DHT22;54412;51.206;6.888;2023-07-29T09:50:26;21.30;99.90
5246;DHT22;54412;51.206;6.888;2023-07-29T09:52:53;21.20;99.90
5246;DHT22;54412;51.206;6.888;2023-07-29T09:55:21;21.20;99.90
5246;DHT22;54412;51.206;6.888;2023-07-29T09:57:59;21.10;99.90
5246;DHT22;54412;51.206;6.888;2023-07-29T10:00:28;21.10;99.90
5246;DHT22;54412;51.206;6.888;2023-07-29T10:02:56;21.10;99.90
5246;DHT22;54412;51.206;6.888;2023-07-29T10:05:25;21.00;99.90
5246;DHT22;54412;51.206;6.888;2023-07-29T10:07:52;21.10;99.90
5246;DHT22;54412;51.206;6.888;2023-07-29T10:10:20;21.30;99.90
5246;DHT22;54412;51.206;6.888;2023-07-29T10:12:46;21.40;99.90
5246;DHT22;54412;51.206;6.888;2023-07-29T10:15:12;21.30;99.90
5246;DHT22;54412;51.206;6.888;2023-07-29T10:17:39;21.40;99.90
5246;DHT22;54412;51.206;6.888;2023-07-29T10:20:08;21.50;99.90
5246;DHT22;54412;51.206;6.888;2023-07-29T10:22:39;21.50;99.90
5246;DHT22;54412;51.206;6.888;2023-07-29T10:25:18;21.60;99.90
5246;DHT22;54412;51.206;6.888;2023-07-29T10:27:56;21.90;99.90
5246;DHT22;54412;51.206;6.888;2023-07-29T10:30:29;22.10;99.90
5246;DHT22;54412;51.206;6.888;2023-07-29T10:32:58;22.20;99.90
5246;DHT22;54412;51.206;6.888;2023-07-29T10:35:26;22.30;99.90
5246;DHT22;54412;51.206;6.888;2023-07-29T10:37:53;22.30;99.90
5246;DHT22;54412;51.206;6.888;2023-07-29T10:40:20;22.00;99.90
5246;DHT22;54412;51.206;6.888;2023-07-29T10:43:07;21.90;99.90
5246;DHT22;54412;51.206;6.888;2023-07-29T10:45:39;21.60;99.90
5246;DHT22;54412;51.206;6.888;2023-07-29T10:51:22;21.50;99.90
5246;DHT22;54412;51.206;6.888;2023-07-29T10:53:59;21.40;99.90
5246;DHT22;54412;51.206;6.888;2023-07-29T10:56:34;21.30;99.90
5246;DHT22;54412;51.206;6.888;2023-07-29T11:01:44;21.50;99.90
5246;DHT22;54412;51.206;6.888;2023-07-29T11:15:19;22.70;99.90
5246;DHT22;54412;51.206;6.888;2023-07-29T11:20:28;22.60;99.90
5246;DHT22;54412;51.206;6.888;2023-07-29T11:22:56;22.50;99.90
5246;DHT22;54412;51.206;6.888;2023-07-29T11:25:25;22.30;99.90
5246;DHT22;54412;51.206;6.888;2023-07-29T11:27:54;22.30;99.90
5246;DHT22;54412;51.206;6.888;2023-07-29T11:30:22;22.00;99.90
5246;DHT22;54412;51.206;6.888;2023-07-29T11:32:49;21.80;99.90
5246;DHT22;54412;51.206;6.888;2023-07-29T11:35:16;21.60;99.90
5246;DHT22;54412;51.206;6.888;2023-07-29T11:37:48;21.50;99.90
5246;DHT22;54412;51.206;6.888;2023-07-29T11:40:19;21.50;99.90
5246;DHT22;54412;51.206;6.888;2023-07-29T11:42:47;21.70;99.90
5246;DHT22;54412;51.206;6.888;2023-07-29T11:45:18;21.90;99.90
5246;DHT22;54412;51.206;6.888;2023-07-29T11:47:45;22.20;99.90
5246;DHT22;54412;51.206;6.888;2023-07-29T11:50:13;22.50;99.90
5246;DHT22;54412;51.206;6.888;2023-07-29T11:52:45;22.80;99.90
5246;DHT22;54412;51.206;6.888;2023-07-29T11:55:15;22.90;99.90
5246;DHT22;54412;51.206;6.888;2023-07-29T11:57:42;22.70;99.90
5246;DHT22;54412;51.206;6.888;2023-07-29T12:00:10;22.60;99.90
5246;DHT22;54412;51.206;6.888;2023-07-29T12:02:38;22.50;99.90
5246;DHT22;54412;51.206;6.888;2023-07-29T12:05:06;22.40;99.90
5246;DHT22;54412;51.206;6.888;2023-07-29T12:07:34;22.40;99.90
5246;DHT22;54412;51.206;6.888;2023-07-29T12:10:00;22.40;99.90
5246;DHT22;54412;51.206;6.888;2023-07-29T12:12:29;22.50;99.90
5246;DHT22;54412;51.206;6.888;2023-07-29T12:14:55;22.90;99.90
5246;DHT22;54412;51.206;6.888;2023-07-29T12:17:21;22.70;99.90
5246;DHT22;54412;51.206;6.888;2023-07-29T12:19:46;22.80;99.90
5246;DHT22;54412;51.206;6.888;2023-07-29T12:22:18;23.20;99.90
5246;DHT22;54412;51.206;6.888;2023-07-29T12:24:45;23.40;99.90
5246;DHT22;54412;51.206;6.888;2023-07-29T12:27:12;23.40;99.90
5246;DHT22;54412;51.206;6.888;2023-07-29T12:29:43;23.40;99.90
5246;DHT22;54412;51.206;6.888;2023-07-29T12:32:09;23.40;99.90
5246;DHT22;54412;51.206;6.888;2023-07-29T12:34:37;23.50;99.90
5246;DHT22;54412;51.206;6.888;2023-07-29T12:37:05;23.70;99.90
5246;DHT22;54412;51.206;6.888;2023-07-29T12:39:39;23.70;99.90
5246;DHT22;54412;51.206;6.888;2023-07-29T12:42:09;23.90;99.90
5246;DHT22;54412;51.206;6.888;2023-07-29T12:44:37;24.00;99.90
5246;DHT22;54412;51.206;6.888;2023-07-29T12:47:05;24.00;99.90
5246;DHT22;54412;51.206;6.888;2023-07-29T12:49:31;23.70;99.90
5246;DHT22;54412;51.206;6.888;2023-07-29T12:52:01;23.50;99.90
5246;DHT22;54412;51.206;6.888;2023-07-29T12:54:26;23.30;99.90
5246;DHT22;54412;51.206;6.888;2023-07-29T12:56:52;23.20;99.90
5246;DHT22;54412;51.206;6.888;2023-07-29T12:59:18;23.30;99.90
5246;DHT22;54412;51.206;6.888;2023-07-29T13:01:44;23.40;99.90
5246;DHT22;54412;51.206;6.888;2023-07-29T13:04:10;23.40;99.90
5246;DHT22;54412;51.206;6.888;2023-07-29T13:06:37;23.30;99.90
5246;DHT22;54412;51.206;6.888;2023-07-29T13:09:03;23.20;99.90
5246;DHT22;54412;51.206;6.888;2023-07-29T13:11:30;23.20;99.90
5246;DHT22;54412;51.206;6.888;2023-07-29T13:13:58;23.10;99.90
5246;DHT22;54412;51.206;6.888;2023-07-29T13:16:23;23.10;99.90
5246;DHT22;54412;51.206;6.888;2023-07-29T13:18:50;22.90;99.90
5246;DHT22;54412;51.206;6.888;2023-07-29T13:21:15;22.90;99.90
5246;DHT22;54412;51.206;6.888;2023-07-29T13:23:41;22.80;99.90
5246;DHT22;54412;51.206;6.888;2023-07-29T13:26:07;22.70;99.90
5246;DHT22;54412;51.206;6.888;2023-07-29T13:28:32;22.60;99.90
5246;DHT22;54412;51.206;6.888;2023-07-29T13:30:58;22.50;99.90
5246;DHT22;54412;51.206;6.888;2023-07-29T13:33:24;22.50;99.90
5246;DHT22;54412;51.206;6.888;2023-07-29T13:35:49;22.50;99.90
5246;DHT22;54412;51.206;6.888;2023-07-29T13:38:15;22.50;99.90
5246;DHT22;54412;51.206;6.888;2023-07-29T13:40:41;22.50;99.90
5246;DHT22;54412;51.206;6.888;2023-07-29T13:43:07;22.40;99.90
5246;DHT22;54412;51.206;6.888;2023-07-29T13:45:34;22.30;99.90
5246;DHT22;54412;51.206;6.888;2023-07-29T13:48:00;22.30;99.90
5246;DHT22;54412;51.206;6.888;2023-07-29T13:50:25;22.40;99.90
5246;DHT22;54412;51.206;6.888;2023-07-29T13:52:51;22.50;99.90
5246;DHT22;54412;51.206;6.888;2023-07-29T13:55:17;22.50;99.90
5246;DHT22;54412;51.206;6.888;2023-07-29T13:57:42;22.50;99.90
5246;DHT22;54412;51.206;6.888;2023-07-29T14:00:08;22.60;99.90
5246;DHT22;54412;51.206;6.888;2023-07-29T14:02:34;22.60;99.90
5246;DHT22;54412;51.206;6.888;2023-07-29T14:05:00;22.50;99.90
5246;DHT22;54412;51.206;6.888;2023-07-29T14:07:25;22.50;99.90
5246;DHT22;54412;51.206;6.888;2023-07-29T14:09:51;22.50;99.90
5246;DHT22;54412;51.206;6.888;2023-07-29T14:12:16;22.40;99.90
5246;DHT22;54412;51.206;6.888;2023-07-29T14:14:42;22.40;99.90
5246;DHT22;54412;51.206;6.888;2023-07-29T14:17:08;22.40;99.90
5246;DHT22;54412;51.206;6.888;2023-07-29T14:19:35;22.40;99.90
5246;DHT22;54412;51.206;6.888;2023-07-29T14:22:04;22.30;99.90
5246;DHT22;54412;51.206;6.888;2023-07-29T14:24:30;22.20;99.90
5246;DHT22;54412;51.206;6.888;2023-07-29T14:26:55;22.10;99.90
5246;DHT22;54412;51.206;6.888;2023-07-29T14:29:21;22.10;99.90
5246;DHT22;54412;51.206;6.888;2023-07-29T14:31:47;22.00;99.90
5246;DHT22;54412;51.206;6.888;2023-07-29T14:34:12;22.10;99.90
5246;DHT22;54412;51.206;6.888;2023-07-29T14:36:38;22.20;99.90
5246;DHT22;54412;51.206;6.888;2023-07-29T14:39:04;22.20;99.90
5246;DHT22;54412;51.206;6.888;2023-07-29T14:41:30;22.30;99.90
5246;DHT22;54412;51.206;6.888;2023-07-29T14:43:56;22.40;99.90
5246;DHT22;54412;51.206;6.888;2023-07-29T14:46:22;22.20;99.90
5246;DHT22;54412;51.206;6.888;2023-07-29T14:48:48;22.20;99.90
5246;DHT22;54412;51.206;6.888;2023-07-29T14:51:14;22.30;99.90
5246;DHT22;54412;51.206;6.888;2023-07-29T14:53:40;22.30;99.90
5246;DHT22;54412;51.206;6.888;2023-07-29T14:56:05;22.20;99.90
5246;DHT22;54412;51.206;6.888;2023-07-29T14:58:31;22.20;99.90
5246;DHT22;54412;51.206;6.888;2023-07-29T15:00:57;22.30;99.90
5246;DHT22;54412;51.206;6.888;2023-07-29T15:03:23;22.20;99.90
5246;DHT22;54412;51.206;6.888;2023-07-29T15:05:50;22.30;99.90
5246;DHT22;54412;51.206;6.888;2023-07-29T15:08:16;22.40;99.90
5246;DHT22;54412;51.206;6.888;2023-07-29T15:10:47;22.40;99.90
5246;DHT22;54412;51.206;6.888;2023-07-29T15:13:13;22.50;99.90
5246;DHT22;54412;51.206;6.888;2023-07-29T15:15:43;22.40;99.90
5246;DHT22;54412;51.206;6.888;2023-07-29T15:18:09;22.40;99.90
5246;DHT22;54412;51.206;6.888;2023-07-29T15:20:35;22.50;99.90
5246;DHT22;54412;51.206;6.888;2023-07-29T15:23:01;22.60;99.90
5246;DHT22;54412;51.206;6.888;2023-07-29T15:25:27;22.80;99.90
5246;DHT22;54412;51.206;6.888;2023-07-29T15:27:52;22.80;99.90
5246;DHT22;54412;51.206;6.888;2023-07-29T15:30:18;22.80;99.90
5246;DHT22;54412;51.206;6.888;2023-07-29T15:32:44;22.80;99.90
5246;DHT22;54412;51.206;6.888;2023-07-29T15:35:10;22.70;99.90
5246;DHT22;54412;51.206;6.888;2023-07-29T15:37:36;22.80;99.90
5246;DHT22;54412;51.206;6.888;2023-07-29T15:40:02;23.00;99.90
5246;DHT22;54412;51.206;6.888;2023-07-29T15:42:29;23.10;99.90
5246;DHT22;54412;51.206;6.888;2023-07-29T15:44:55;23.20;99.90
5246;DHT22;54412;51.206;6.888;2023-07-29T15:47:21;23.00;99.90
5246;DHT22;54412;51.206;6.888;2023-07-29T15:49:47;23.10;99.90
5246;DHT22;54412;51.206;6.888;2023-07-29T15:52:12;23.20;99.90
5246;DHT22;54412;51.206;6.888;2023-07-29T15:54:42;23.20;99.90
5246;DHT22;54412;51.206;6.888;2023-07-29T15:57:09;23.30;99.90
5246;DHT22;54412;51.206;6.888;2023-07-29T15:59:35;23.40;99.90
5246;DHT22;54412;51.206;6.888;2023-07-29T16:02:01;23.30;99.90
5246;DHT22;54412;51.206;6.888;2023-07-29T16:04:27;23.30;99.90
5246;DHT22;54412;51.206;6.888;2023-07-29T16:06:53;23.30;99.90
5246;DHT22;54412;51.206;6.888;2023-07-29T16:09:20;23.30;99.90